sensor_id;sensor_type;location;lat;lon;timestamp;P1;durP1;ratioP1;P2;durP2;ratioP2
6735;SDS011;3405;50.576;12.364;2023-04-06T00:01:11;2.58;;;2.13;;
6735;SDS011;3405;50.576;12.364;2023-04-06T00:03:37;2.45;;;1.95;;
6735;SDS011;3405;50.576;12.364;2023-04-06T00:06:03;2.30;;;2.00;;
6735;SDS011;3405;50.576;12.364;2023-04-06T00:08:29;2.20;;;2.00;;
6735;SDS011;3405;50.576;12.364;2023-04-06T00:10:55;2.15;;;1.92;;
6735;SDS011;3405;50.576;12.364;2023-04-06T00:13:21;2.90;;;2.00;;
6735;SDS011;3405;50.576;12.364;2023-04-06T00:15:47;1.90;;;1.73;;
6735;SDS011;3405;50.576;12.364;2023-04-06T00:18:13;2.05;;;1.85;;
6735;SDS011;3405;50.576;12.364;2023-04-06T00:20:39;2.03;;;1.80;;
6735;SDS011;3405;50.576;12.364;2023-04-06T00:23:05;2.67;;;2.00;;
6735;SDS011;3405;50.576;12.364;2023-04-06T00:25:31;2.92;;;2.28;;
6735;SDS011;3405;50.576;12.364;2023-04-06T00:27:56;2.33;;;1.98;;
6735;SDS011;3405;50.576;12.364;2023-04-06T00:30:22;2.08;;;1.80;;
6735;SDS011;3405;50.576;12.364;2023-04-06T00:32:48;2.10;;;1.90;;
6735;SDS011;3405;50.576;12.364;2023-04-06T00:35:14;2.85;;;2.25;;
6735;SDS011;3405;50.576;12.364;2023-04-06T00:37:40;3.08;;;2.05;;
6735;SDS011;3405;50.576;12.364;2023-04-06T00:40:06;2.38;;;2.00;;
6735;SDS011;3405;50.576;12.364;2023-04-06T00:42:32;2.20;;;1.75;;
6735;SDS011;3405;50.576;12.364;2023-04-06T00:44:59;2.17;;;1.98;;
6735;SDS011;3405;50.576;12.364;2023-04-06T00:47:25;1.73;;;1.50;;
6735;SDS011;3405;50.576;12.364;2023-04-06T00:49:52;2.25;;;1.92;;
6735;SDS011;3405;50.576;12.364;2023-04-06T00:52:18;2.25;;;1.90;;
6735;SDS011;3405;50.576;12.364;2023-04-06T00:54:44;2.42;;;2.10;;
6735;SDS011;3405;50.576;12.364;2023-04-06T00:57:13;2.33;;;1.95;;
6735;SDS011;3405;50.576;12.364;2023-04-06T00:59:40;2.20;;;2.00;;
6735;SDS011;3405;50.576;12.364;2023-04-06T01:02:06;2.35;;;1.98;;
6735;SDS011;3405;50.576;12.364;2023-04-06T01:04:32;2.63;;;1.90;;
6735;SDS011;3405;50.576;12.364;2023-04-06T01:06:58;2.20;;;1.88;;
6735;SDS011;3405;50.576;12.364;2023-04-06T01:09:24;2.08;;;1.67;;
6735;SDS011;3405;50.576;12.364;2023-04-06T01:11:50;2.10;;;1.90;;
6735;SDS011;3405;50.576;12.364;2023-04-06T01:14:15;2.10;;;1.90;;
6735;SDS011;3405;50.576;12.364;2023-04-06T01:16:41;3.05;;;2.10;;
6735;SDS011;3405;50.576;12.364;2023-04-06T01:19:08;2.13;;;1.88;;
6735;SDS011;3405;50.576;12.364;2023-04-06T01:21:34;2.65;;;1.92;;
6735;SDS011;3405;50.576;12.364;2023-04-06T01:24:00;2.38;;;1.88;;
6735;SDS011;3405;50.576;12.364;2023-04-06T01:26:26;2.58;;;1.80;;
6735;SDS011;3405;50.576;12.364;2023-04-06T01:28:54;2.28;;;1.80;;
6735;SDS011;3405;50.576;12.364;2023-04-06T01:31:20;2.22;;;1.90;;
6735;SDS011;3405;50.576;12.364;2023-04-06T01:33:46;2.13;;;1.80;;
6735;SDS011;3405;50.576;12.364;2023-04-06T01:36:12;2.47;;;1.88;;
6735;SDS011;3405;50.576;12.364;2023-04-06T01:38:38;2.10;;;1.90;;
6735;SDS011;3405;50.576;12.364;2023-04-06T01:41:04;1.88;;;1.67;;
6735;SDS011;3405;50.576;12.364;2023-04-06T01:43:30;2.22;;;1.77;;
6735;SDS011;3405;50.576;12.364;2023-04-06T01:45:56;2.22;;;1.92;;
6735;SDS011;3405;50.576;12.364;2023-04-06T01:48:22;2.13;;;1.95;;
6735;SDS011;3405;50.576;12.364;2023-04-06T01:50:48;1.80;;;1.58;;
6735;SDS011;3405;50.576;12.364;2023-04-06T01:53:13;1.88;;;1.70;;
6735;SDS011;3405;50.576;12.364;2023-04-06T01:55:40;2.10;;;1.90;;
6735;SDS011;3405;50.576;12.364;2023-04-06T01:58:06;2.08;;;1.88;;
6735;SDS011;3405;50.576;12.364;2023-04-06T02:00:32;2.10;;;1.88;;
6735;SDS011;3405;50.576;12.364;2023-04-06T02:02:58;1.80;;;1.70;;
6735;SDS011;3405;50.576;12.364;2023-04-06T02:05:25;2.53;;;2.13;;
6735;SDS011;3405;50.576;12.364;2023-04-06T02:07:51;2.17;;;1.75;;
6735;SDS011;3405;50.576;12.364;2023-04-06T02:10:17;2.22;;;1.70;;
6735;SDS011;3405;50.576;12.364;2023-04-06T02:12:43;2.20;;;1.90;;
6735;SDS011;3405;50.576;12.364;2023-04-06T02:15:09;1.95;;;1.80;;
6735;SDS011;3405;50.576;12.364;2023-04-06T02:17:35;2.30;;;1.98;;
6735;SDS011;3405;50.576;12.364;2023-04-06T02:20:01;2.08;;;1.88;;
6735;SDS011;3405;50.576;12.364;2023-04-06T02:22:27;2.40;;;1.65;;
6735;SDS011;3405;50.576;12.364;2023-04-06T02:24:53;2.22;;;1.90;;
6735;SDS011;3405;50.576;12.364;2023-04-06T02:27:18;2.05;;;1.83;;
6735;SDS011;3405;50.576;12.364;2023-04-06T02:29:44;3.35;;;2.13;;
6735;SDS011;3405;50.576;12.364;2023-04-06T02:32:10;1.83;;;1.73;;
6735;SDS011;3405;50.576;12.364;2023-04-06T02:34:36;1.70;;;1.60;;
6735;SDS011;3405;50.576;12.364;2023-04-06T02:37:02;1.95;;;1.70;;
6735;SDS011;3405;50.576;12.364;2023-04-06T02:39:28;2.17;;;1.85;;
6735;SDS011;3405;50.576;12.364;2023-04-06T02:41:54;2.05;;;1.67;;
6735;SDS011;3405;50.576;12.364;2023-04-06T02:44:21;1.80;;;1.70;;
6735;SDS011;3405;50.576;12.364;2023-04-06T02:46:47;1.90;;;1.75;;
6735;SDS011;3405;50.576;12.364;2023-04-06T02:49:13;2.17;;;1.90;;
6735;SDS011;3405;50.576;12.364;2023-04-06T02:51:39;3.28;;;2.00;;
6735;SDS011;3405;50.576;12.364;2023-04-06T02:54:05;2.20;;;1.88;;
6735;SDS011;3405;50.576;12.364;2023-04-06T02:56:31;2.17;;;1.60;;
6735;SDS011;3405;50.576;12.364;2023-04-06T02:58:57;2.00;;;1.90;;
6735;SDS011;3405;50.576;12.364;2023-04-06T03:01:23;2.28;;;2.05;;
6735;SDS011;3405;50.576;12.364;2023-04-06T03:03:49;1.70;;;1.60;;
6735;SDS011;3405;50.576;12.364;2023-04-06T03:06:15;2.53;;;1.90;;
6735;SDS011;3405;50.576;12.364;2023-04-06T03:08:41;2.90;;;1.85;;
6735;SDS011;3405;50.576;12.364;2023-04-06T03:11:06;1.95;;;1.80;;
6735;SDS011;3405;50.576;12.364;2023-04-06T03:13:32;2.40;;;1.50;;
6735;SDS011;3405;50.576;12.364;2023-04-06T03:15:58;2.08;;;1.55;;
6735;SDS011;3405;50.576;12.364;2023-04-06T03:18:24;1.60;;;1.50;;
6735;SDS011;3405;50.576;12.364;2023-04-06T03:20:51;1.80;;;1.70;;
6735;SDS011;3405;50.576;12.364;2023-04-06T03:23:18;3.35;;;1.92;;
6735;SDS011;3405;50.576;12.364;2023-04-06T03:25:45;1.65;;;1.52;;
6735;SDS011;3405;50.576;12.364;2023-04-06T03:28:11;1.80;;;1.70;;
6735;SDS011;3405;50.576;12.364;2023-04-06T03:30:37;1.58;;;1.48;;
6735;SDS011;3405;50.576;12.364;2023-04-06T03:33:03;1.77;;;1.67;;
6735;SDS011;3405;50.576;12.364;2023-04-06T03:35:29;2.03;;;1.70;;
6735;SDS011;3405;50.576;12.364;2023-04-06T03:37:55;3.28;;;1.90;;
6735;SDS011;3405;50.576;12.364;2023-04-06T03:40:22;2.42;;;1.75;;
6735;SDS011;3405;50.576;12.364;2023-04-06T03:42:48;3.03;;;2.08;;
6735;SDS011;3405;50.576;12.364;2023-04-06T03:45:14;3.20;;;2.22;;
6735;SDS011;3405;50.576;12.364;2023-04-06T03:47:40;2.55;;;1.95;;
6735;SDS011;3405;50.576;12.364;2023-04-06T03:50:06;2.63;;;1.90;;
6735;SDS011;3405;50.576;12.364;2023-04-06T03:52:32;4.03;;;2.08;;
6735;SDS011;3405;50.576;12.364;2023-04-06T03:54:58;4.20;;;2.22;;
6735;SDS011;3405;50.576;12.364;2023-04-06T03:57:23;4.63;;;2.10;;
6735;SDS011;3405;50.576;12.364;2023-04-06T03:59:49;7.55;;;2.22;;
6735;SDS011;3405;50.576;12.364;2023-04-06T04:02:15;8.73;;;2.65;;
6735;SDS011;3405;50.576;12.364;2023-04-06T04:04:42;9.10;;;2.63;;
6735;SDS011;3405;50.576;12.364;2023-04-06T04:07:08;5.65;;;2.60;;
6735;SDS011;3405;50.576;12.364;2023-04-06T04:09:34;8.57;;;2.70;;
6735;SDS011;3405;50.576;12.364;2023-04-06T04:12:00;4.88;;;2.65;;
6735;SDS011;3405;50.576;12.364;2023-04-06T04:14:26;4.65;;;2.35;;
6735;SDS011;3405;50.576;12.364;2023-04-06T04:16:52;5.80;;;2.40;;
6735;SDS011;3405;50.576;12.364;2023-04-06T04:19:18;6.25;;;2.75;;
6735;SDS011;3405;50.576;12.364;2023-04-06T04:21:44;5.90;;;2.53;;
6735;SDS011;3405;50.576;12.364;2023-04-06T04:24:10;5.95;;;2.78;;
6735;SDS011;3405;50.576;12.364;2023-04-06T04:26:37;6.88;;;2.40;;
6735;SDS011;3405;50.576;12.364;2023-04-06T04:29:03;7.88;;;3.10;;
6735;SDS011;3405;50.576;12.364;2023-04-06T04:31:28;8.50;;;3.25;;
6735;SDS011;3405;50.576;12.364;2023-04-06T04:33:54;6.45;;;2.85;;
6735;SDS011;3405;50.576;12.364;2023-04-06T04:36:20;7.43;;;2.47;;
6735;SDS011;3405;50.576;12.364;2023-04-06T04:38:46;6.32;;;2.72;;
6735;SDS011;3405;50.576;12.364;2023-04-06T04:41:12;6.35;;;2.55;;
6735;SDS011;3405;50.576;12.364;2023-04-06T04:43:38;5.30;;;2.08;;
6735;SDS011;3405;50.576;12.364;2023-04-06T04:46:04;6.60;;;2.97;;
6735;SDS011;3405;50.576;12.364;2023-04-06T04:48:30;6.45;;;2.83;;
6735;SDS011;3405;50.576;12.364;2023-04-06T04:50:56;3.85;;;2.08;;
6735;SDS011;3405;50.576;12.364;2023-04-06T04:53:22;7.90;;;2.60;;
6735;SDS011;3405;50.576;12.364;2023-04-06T04:55:48;4.97;;;2.55;;
6735;SDS011;3405;50.576;12.364;2023-04-06T04:58:14;3.63;;;2.40;;
6735;SDS011;3405;50.576;12.364;2023-04-06T05:00:41;5.15;;;2.55;;
6735;SDS011;3405;50.576;12.364;2023-04-06T05:03:07;5.40;;;2.22;;
6735;SDS011;3405;50.576;12.364;2023-04-06T05:05:34;6.70;;;2.63;;
6735;SDS011;3405;50.576;12.364;2023-04-06T05:08:00;4.20;;;2.60;;
6735;SDS011;3405;50.576;12.364;2023-04-06T05:10:25;5.30;;;2.47;;
6735;SDS011;3405;50.576;12.364;2023-04-06T05:12:51;7.35;;;2.70;;
6735;SDS011;3405;50.576;12.364;2023-04-06T05:15:17;5.90;;;2.90;;
6735;SDS011;3405;50.576;12.364;2023-04-06T05:17:43;4.32;;;2.60;;
6735;SDS011;3405;50.576;12.364;2023-04-06T05:20:09;7.00;;;2.10;;
6735;SDS011;3405;50.576;12.364;2023-04-06T05:22:35;3.67;;;2.50;;
6735;SDS011;3405;50.576;12.364;2023-04-06T05:25:02;8.30;;;2.72;;
6735;SDS011;3405;50.576;12.364;2023-04-06T05:27:28;4.78;;;2.75;;
6735;SDS011;3405;50.576;12.364;2023-04-06T05:29:54;3.88;;;2.22;;
6735;SDS011;3405;50.576;12.364;2023-04-06T05:32:20;2.45;;;2.10;;
6735;SDS011;3405;50.576;12.364;2023-04-06T05:34:47;4.97;;;2.05;;
6735;SDS011;3405;50.576;12.364;2023-04-06T05:37:14;5.53;;;2.53;;
6735;SDS011;3405;50.576;12.364;2023-04-06T05:39:40;4.80;;;2.47;;
6735;SDS011;3405;50.576;12.364;2023-04-06T05:42:06;4.18;;;2.35;;
6735;SDS011;3405;50.576;12.364;2023-04-06T05:44:32;3.88;;;2.47;;
6735;SDS011;3405;50.576;12.364;2023-04-06T05:46:58;5.28;;;2.40;;
6735;SDS011;3405;50.576;12.364;2023-04-06T05:49:24;5.22;;;2.30;;
6735;SDS011;3405;50.576;12.364;2023-04-06T05:51:50;4.28;;;2.40;;
6735;SDS011;3405;50.576;12.364;2023-04-06T05:54:16;3.95;;;2.55;;
6735;SDS011;3405;50.576;12.364;2023-04-06T05:56:42;2.95;;;2.25;;
6735;SDS011;3405;50.576;12.364;2023-04-06T05:59:08;4.45;;;2.47;;
6735;SDS011;3405;50.576;12.364;2023-04-06T06:01:34;3.92;;;2.30;;
6735;SDS011;3405;50.576;12.364;2023-04-06T06:04:01;4.38;;;2.55;;
6735;SDS011;3405;50.576;12.364;2023-04-06T06:06:27;4.78;;;2.50;;
6735;SDS011;3405;50.576;12.364;2023-04-06T06:08:55;3.42;;;2.30;;
6735;SDS011;3405;50.576;12.364;2023-04-06T06:11:23;4.57;;;2.25;;
6735;SDS011;3405;50.576;12.364;2023-04-06T06:13:50;4.72;;;2.10;;
6735;SDS011;3405;50.576;12.364;2023-04-06T06:16:16;6.45;;;2.67;;
6735;SDS011;3405;50.576;12.364;2023-04-06T06:18:42;4.00;;;2.22;;
6735;SDS011;3405;50.576;12.364;2023-04-06T06:21:08;4.32;;;2.13;;
6735;SDS011;3405;50.576;12.364;2023-04-06T06:23:36;2.78;;;2.13;;
6735;SDS011;3405;50.576;12.364;2023-04-06T06:26:02;3.38;;;1.90;;
6735;SDS011;3405;50.576;12.364;2023-04-06T06:28:28;2.95;;;2.15;;
6735;SDS011;3405;50.576;12.364;2023-04-06T06:30:54;2.92;;;2.13;;
6735;SDS011;3405;50.576;12.364;2023-04-06T06:33:20;4.63;;;2.60;;
6735;SDS011;3405;50.576;12.364;2023-04-06T06:35:46;4.15;;;2.10;;
6735;SDS011;3405;50.576;12.364;2023-04-06T06:38:11;2.92;;;2.13;;
6735;SDS011;3405;50.576;12.364;2023-04-06T06:40:37;3.20;;;2.30;;
6735;SDS011;3405;50.576;12.364;2023-04-06T06:43:03;3.75;;;2.25;;
6735;SDS011;3405;50.576;12.364;2023-04-06T06:45:29;2.97;;;2.10;;
6735;SDS011;3405;50.576;12.364;2023-04-06T06:47:55;5.10;;;2.53;;
6735;SDS011;3405;50.576;12.364;2023-04-06T06:50:21;3.78;;;2.28;;
6735;SDS011;3405;50.576;12.364;2023-04-06T06:52:47;2.53;;;2.10;;
6735;SDS011;3405;50.576;12.364;2023-04-06T06:55:13;4.47;;;2.30;;
6735;SDS011;3405;50.576;12.364;2023-04-06T06:57:40;3.53;;;2.00;;
6735;SDS011;3405;50.576;12.364;2023-04-06T07:00:07;2.75;;;2.17;;
6735;SDS011;3405;50.576;12.364;2023-04-06T07:02:34;2.50;;;1.67;;
6735;SDS011;3405;50.576;12.364;2023-04-06T07:05:00;2.55;;;1.98;;
6735;SDS011;3405;50.576;12.364;2023-04-06T07:07:26;2.72;;;2.00;;
6735;SDS011;3405;50.576;12.364;2023-04-06T07:09:52;2.50;;;1.70;;
6735;SDS011;3405;50.576;12.364;2023-04-06T07:12:18;2.80;;;2.03;;
6735;SDS011;3405;50.576;12.364;2023-04-06T07:14:44;2.88;;;2.20;;
6735;SDS011;3405;50.576;12.364;2023-04-06T07:17:10;3.17;;;2.08;;
6735;SDS011;3405;50.576;12.364;2023-04-06T07:19:36;3.00;;;1.85;;
6735;SDS011;3405;50.576;12.364;2023-04-06T07:22:02;4.20;;;2.15;;
6735;SDS011;3405;50.576;12.364;2023-04-06T07:24:28;2.42;;;1.58;;
6735;SDS011;3405;50.576;12.364;2023-04-06T07:26:54;2.58;;;1.90;;
6735;SDS011;3405;50.576;12.364;2023-04-06T07:29:23;1.95;;;1.80;;
6735;SDS011;3405;50.576;12.364;2023-04-06T07:31:49;2.85;;;1.73;;
6735;SDS011;3405;50.576;12.364;2023-04-06T07:34:15;2.35;;;1.88;;
6735;SDS011;3405;50.576;12.364;2023-04-06T07:36:41;4.03;;;2.30;;
6735;SDS011;3405;50.576;12.364;2023-04-06T07:39:07;2.50;;;1.85;;
6735;SDS011;3405;50.576;12.364;2023-04-06T07:41:33;2.45;;;1.95;;
6735;SDS011;3405;50.576;12.364;2023-04-06T07:43:59;2.20;;;1.70;;
6735;SDS011;3405;50.576;12.364;2023-04-06T07:46:25;3.38;;;2.20;;
6735;SDS011;3405;50.576;12.364;2023-04-06T07:48:50;2.45;;;1.90;;
6735;SDS011;3405;50.576;12.364;2023-04-06T07:51:16;1.77;;;1.67;;
6735;SDS011;3405;50.576;12.364;2023-04-06T07:53:43;1.83;;;1.63;;
6735;SDS011;3405;50.576;12.364;2023-04-06T07:56:09;2.17;;;1.90;;
6735;SDS011;3405;50.576;12.364;2023-04-06T07:58:37;2.17;;;1.70;;
6735;SDS011;3405;50.576;12.364;2023-04-06T08:01:02;1.67;;;1.58;;
6735;SDS011;3405;50.576;12.364;2023-04-06T08:03:28;1.80;;;1.70;;
6735;SDS011;3405;50.576;12.364;2023-04-06T08:05:55;2.45;;;1.80;;
6735;SDS011;3405;50.576;12.364;2023-04-06T08:08:21;1.98;;;1.70;;
6735;SDS011;3405;50.576;12.364;2023-04-06T08:10:47;2.00;;;1.80;;
6735;SDS011;3405;50.576;12.364;2023-04-06T08:13:14;2.00;;;1.60;;
6735;SDS011;3405;50.576;12.364;2023-04-06T08:15:40;1.85;;;1.65;;
6735;SDS011;3405;50.576;12.364;2023-04-06T08:18:06;2.08;;;1.67;;
6735;SDS011;3405;50.576;12.364;2023-04-06T08:20:32;2.35;;;1.80;;
6735;SDS011;3405;50.576;12.364;2023-04-06T08:22:58;1.63;;;1.48;;
6735;SDS011;3405;50.576;12.364;2023-04-06T08:25:24;1.60;;;1.50;;
6735;SDS011;3405;50.576;12.364;2023-04-06T08:27:50;1.63;;;1.52;;
6735;SDS011;3405;50.576;12.364;2023-04-06T08:30:16;1.85;;;1.63;;
6735;SDS011;3405;50.576;12.364;2023-04-06T08:32:43;1.75;;;1.60;;
6735;SDS011;3405;50.576;12.364;2023-04-06T08:35:09;1.92;;;1.63;;
6735;SDS011;3405;50.576;12.364;2023-04-06T08:37:35;2.05;;;1.40;;
6735;SDS011;3405;50.576;12.364;2023-04-06T08:40:01;1.70;;;1.40;;
6735;SDS011;3405;50.576;12.364;2023-04-06T08:42:28;2.28;;;1.45;;
6735;SDS011;3405;50.576;12.364;2023-04-06T08:44:57;1.63;;;1.52;;
6735;SDS011;3405;50.576;12.364;2023-04-06T08:47:23;1.85;;;1.50;;
6735;SDS011;3405;50.576;12.364;2023-04-06T08:49:49;1.40;;;1.30;;
6735;SDS011;3405;50.576;12.364;2023-04-06T08:52:16;1.85;;;1.48;;
6735;SDS011;3405;50.576;12.364;2023-04-06T08:54:43;2.47;;;1.75;;
6735;SDS011;3405;50.576;12.364;2023-04-06T08:57:09;2.47;;;1.70;;
6735;SDS011;3405;50.576;12.364;2023-04-06T08:59:35;1.95;;;1.55;;
6735;SDS011;3405;50.576;12.364;2023-04-06T09:02:04;1.40;;;1.30;;
6735;SDS011;3405;50.576;12.364;2023-04-06T09:04:32;1.60;;;1.50;;
6735;SDS011;3405;50.576;12.364;2023-04-06T09:06:58;1.60;;;1.27;;
6735;SDS011;3405;50.576;12.364;2023-04-06T09:09:24;1.50;;;1.40;;
6735;SDS011;3405;50.576;12.364;2023-04-06T09:11:50;1.73;;;1.40;;
6735;SDS011;3405;50.576;12.364;2023-04-06T09:14:17;1.40;;;1.30;;
6735;SDS011;3405;50.576;12.364;2023-04-06T09:16:58;1.48;;;1.27;;
6735;SDS011;3405;50.576;12.364;2023-04-06T09:19:24;1.70;;;1.48;;
6735;SDS011;3405;50.576;12.364;2023-04-06T09:21:50;1.48;;;1.33;;
6735;SDS011;3405;50.576;12.364;2023-04-06T09:24:15;1.50;;;1.40;;
6735;SDS011;3405;50.576;12.364;2023-04-06T09:26:46;1.38;;;1.27;;
6735;SDS011;3405;50.576;12.364;2023-04-06T09:29:21;1.88;;;1.58;;
6735;SDS011;3405;50.576;12.364;2023-04-06T09:31:48;1.42;;;1.33;;
6735;SDS011;3405;50.576;12.364;2023-04-06T09:34:21;1.50;;;1.40;;
6735;SDS011;3405;50.576;12.364;2023-04-06T09:36:47;1.65;;;1.55;;
6735;SDS011;3405;50.576;12.364;2023-04-06T09:39:13;1.40;;;1.17;;
6735;SDS011;3405;50.576;12.364;2023-04-06T09:41:39;1.52;;;1.40;;
6735;SDS011;3405;50.576;12.364;2023-04-06T09:44:09;1.77;;;1.40;;
6735;SDS011;3405;50.576;12.364;2023-04-06T09:46:36;1.45;;;1.30;;
6735;SDS011;3405;50.576;12.364;2023-04-06T09:49:03;1.63;;;1.30;;
6735;SDS011;3405;50.576;12.364;2023-04-06T09:51:39;1.67;;;1.50;;
6735;SDS011;3405;50.576;12.364;2023-04-06T09:54:06;1.80;;;1.35;;
6735;SDS011;3405;50.576;12.364;2023-04-06T09:56:51;1.83;;;1.50;;
6735;SDS011;3405;50.576;12.364;2023-04-06T09:59:38;2.08;;;1.38;;
6735;SDS011;3405;50.576;12.364;2023-04-06T10:02:06;1.40;;;1.30;;
6735;SDS011;3405;50.576;12.364;2023-04-06T10:04:36;2.13;;;1.38;;
6735;SDS011;3405;50.576;12.364;2023-04-06T10:07:05;1.80;;;1.60;;
6735;SDS011;3405;50.576;12.364;2023-04-06T10:09:32;1.63;;;1.30;;
6735;SDS011;3405;50.576;12.364;2023-04-06T10:12:06;1.40;;;1.30;;
6735;SDS011;3405;50.576;12.364;2023-04-06T10:14:33;1.40;;;1.30;;
6735;SDS011;3405;50.576;12.364;2023-04-06T10:17:02;1.38;;;1.27;;
6735;SDS011;3405;50.576;12.364;2023-04-06T10:19:29;1.55;;;1.27;;
6735;SDS011;3405;50.576;12.364;2023-04-06T10:21:58;1.30;;;1.20;;
6735;SDS011;3405;50.576;12.364;2023-04-06T10:24:25;1.20;;;1.10;;
6735;SDS011;3405;50.576;12.364;2023-04-06T10:26:58;2.20;;;1.35;;
6735;SDS011;3405;50.576;12.364;2023-04-06T10:29:25;1.40;;;1.30;;
6735;SDS011;3405;50.576;12.364;2023-04-06T10:31:51;1.40;;;1.30;;
6735;SDS011;3405;50.576;12.364;2023-04-06T10:34:17;1.23;;;1.13;;
6735;SDS011;3405;50.576;12.364;2023-04-06T10:36:42;1.20;;;1.10;;
6735;SDS011;3405;50.576;12.364;2023-04-06T10:39:08;1.67;;;1.27;;
6735;SDS011;3405;50.576;12.364;2023-04-06T10:41:42;1.23;;;1.10;;
6735;SDS011;3405;50.576;12.364;2023-04-06T10:44:08;1.95;;;1.27;;
6735;SDS011;3405;50.576;12.364;2023-04-06T10:46:42;1.90;;;1.60;;
6735;SDS011;3405;50.576;12.364;2023-04-06T10:49:17;2.75;;;1.45;;
6735;SDS011;3405;50.576;12.364;2023-04-06T10:51:43;2.42;;;1.27;;
6735;SDS011;3405;50.576;12.364;2023-04-06T10:54:09;1.70;;;1.20;;
6735;SDS011;3405;50.576;12.364;2023-04-06T10:56:38;1.75;;;1.20;;
6735;SDS011;3405;50.576;12.364;2023-04-06T10:59:05;2.25;;;1.25;;
6735;SDS011;3405;50.576;12.364;2023-04-06T11:01:32;2.22;;;1.42;;
6735;SDS011;3405;50.576;12.364;2023-04-06T11:03:58;9.68;;;1.30;;
6735;SDS011;3405;50.576;12.364;2023-04-06T11:06:27;2.63;;;1.15;;
6735;SDS011;3405;50.576;12.364;2023-04-06T11:08:56;1.35;;;1.25;;
6735;SDS011;3405;50.576;12.364;2023-04-06T11:11:23;3.15;;;1.45;;
6735;SDS011;3405;50.576;12.364;2023-04-06T11:16:20;1.70;;;1.38;;
6735;SDS011;3405;50.576;12.364;2023-04-06T11:18:47;3.38;;;1.42;;
6735;SDS011;3405;50.576;12.364;2023-04-06T11:21:14;1.60;;;1.35;;
6735;SDS011;3405;50.576;12.364;2023-04-06T11:23:40;3.80;;;1.38;;
6735;SDS011;3405;50.576;12.364;2023-04-06T11:26:10;2.58;;;1.20;;
6735;SDS011;3405;50.576;12.364;2023-04-06T11:28:36;1.77;;;1.33;;
6735;SDS011;3405;50.576;12.364;2023-04-06T11:31:02;2.05;;;1.42;;
6735;SDS011;3405;50.576;12.364;2023-04-06T11:33:28;1.48;;;1.10;;
6735;SDS011;3405;50.576;12.364;2023-04-06T11:35:58;2.90;;;1.42;;
6735;SDS011;3405;50.576;12.364;2023-04-06T11:38:24;2.05;;;1.25;;
6735;SDS011;3405;50.576;12.364;2023-04-06T11:40:53;2.67;;;1.33;;
6735;SDS011;3405;50.576;12.364;2023-04-06T11:43:25;1.80;;;1.27;;
6735;SDS011;3405;50.576;12.364;2023-04-06T11:45:51;1.48;;;1.10;;
6735;SDS011;3405;50.576;12.364;2023-04-06T11:48:25;1.52;;;1.20;;
6735;SDS011;3405;50.576;12.364;2023-04-06T11:50:54;1.88;;;1.42;;
6735;SDS011;3405;50.576;12.364;2023-04-06T11:53:21;1.45;;;1.35;;
6735;SDS011;3405;50.576;12.364;2023-04-06T11:55:47;3.58;;;1.70;;
6735;SDS011;3405;50.576;12.364;2023-04-06T11:58:13;2.15;;;1.33;;
6735;SDS011;3405;50.576;12.364;2023-04-06T12:00:38;2.08;;;1.30;;
6735;SDS011;3405;50.576;12.364;2023-04-06T12:03:09;2.15;;;1.33;;
6735;SDS011;3405;50.576;12.364;2023-04-06T12:05:35;1.42;;;1.33;;
6735;SDS011;3405;50.576;12.364;2023-04-06T12:08:01;1.40;;;1.00;;
6735;SDS011;3405;50.576;12.364;2023-04-06T12:10:27;1.40;;;1.30;;
6735;SDS011;3405;50.576;12.364;2023-04-06T12:12:53;2.00;;;1.30;;
6735;SDS011;3405;50.576;12.364;2023-04-06T12:15:19;1.40;;;1.00;;
6735;SDS011;3405;50.576;12.364;2023-04-06T12:17:46;1.90;;;1.20;;
6735;SDS011;3405;50.576;12.364;2023-04-06T12:20:12;2.05;;;1.50;;
6735;SDS011;3405;50.576;12.364;2023-04-06T12:22:38;1.40;;;1.25;;
6735;SDS011;3405;50.576;12.364;2023-04-06T12:25:04;2.17;;;1.40;;
6735;SDS011;3405;50.576;12.364;2023-04-06T12:27:31;1.80;;;1.35;;
6735;SDS011;3405;50.576;12.364;2023-04-06T12:29:57;2.20;;;1.50;;
6735;SDS011;3405;50.576;12.364;2023-04-06T12:32:23;1.42;;;1.20;;
6735;SDS011;3405;50.576;12.364;2023-04-06T12:34:50;1.77;;;1.20;;
6735;SDS011;3405;50.576;12.364;2023-04-06T12:37:16;2.03;;;1.42;;
6735;SDS011;3405;50.576;12.364;2023-04-06T12:39:42;1.40;;;1.30;;
6735;SDS011;3405;50.576;12.364;2023-04-06T12:42:09;1.17;;;1.08;;
6735;SDS011;3405;50.576;12.364;2023-04-06T12:44:35;1.35;;;1.20;;
6735;SDS011;3405;50.576;12.364;2023-04-06T12:47:01;2.55;;;1.20;;
6735;SDS011;3405;50.576;12.364;2023-04-06T12:49:27;1.30;;;1.20;;
6735;SDS011;3405;50.576;12.364;2023-04-06T12:51:53;1.30;;;1.15;;
6735;SDS011;3405;50.576;12.364;2023-04-06T12:54:19;1.88;;;1.33;;
6735;SDS011;3405;50.576;12.364;2023-04-06T12:56:45;2.45;;;1.38;;
6735;SDS011;3405;50.576;12.364;2023-04-06T12:59:11;1.50;;;1.40;;
6735;SDS011;3405;50.576;12.364;2023-04-06T13:01:37;1.40;;;1.20;;
6735;SDS011;3405;50.576;12.364;2023-04-06T13:04:03;1.45;;;1.17;;
6735;SDS011;3405;50.576;12.364;2023-04-06T13:06:29;1.77;;;1.50;;
6735;SDS011;3405;50.576;12.364;2023-04-06T13:08:55;2.10;;;1.27;;
6735;SDS011;3405;50.576;12.364;2023-04-06T13:11:21;2.17;;;1.30;;
6735;SDS011;3405;50.576;12.364;2023-04-06T13:13:48;2.55;;;1.20;;
6735;SDS011;3405;50.576;12.364;2023-04-06T13:16:14;2.10;;;1.30;;
6735;SDS011;3405;50.576;12.364;2023-04-06T13:18:41;1.40;;;1.30;;
6735;SDS011;3405;50.576;12.364;2023-04-06T13:21:07;1.38;;;1.17;;
6735;SDS011;3405;50.576;12.364;2023-04-06T13:23:33;6.00;;;1.55;;
6735;SDS011;3405;50.576;12.364;2023-04-06T13:26:03;1.73;;;1.42;;
6735;SDS011;3405;50.576;12.364;2023-04-06T13:28:29;3.20;;;1.60;;
6735;SDS011;3405;50.576;12.364;2023-04-06T13:30:57;1.27;;;1.17;;
6735;SDS011;3405;50.576;12.364;2023-04-06T13:33:23;2.88;;;1.35;;
6735;SDS011;3405;50.576;12.364;2023-04-06T13:35:49;1.60;;;1.23;;
6735;SDS011;3405;50.576;12.364;2023-04-06T13:38:15;1.85;;;1.20;;
6735;SDS011;3405;50.576;12.364;2023-04-06T13:40:42;2.67;;;1.20;;
6735;SDS011;3405;50.576;12.364;2023-04-06T13:43:07;1.65;;;1.48;;
6735;SDS011;3405;50.576;12.364;2023-04-06T13:45:33;1.92;;;1.20;;
6735;SDS011;3405;50.576;12.364;2023-04-06T13:47:59;2.28;;;1.27;;
6735;SDS011;3405;50.576;12.364;2023-04-06T13:50:25;3.05;;;1.60;;
6735;SDS011;3405;50.576;12.364;2023-04-06T13:52:52;1.17;;;1.10;;
6735;SDS011;3405;50.576;12.364;2023-04-06T13:55:17;1.30;;;1.20;;
6735;SDS011;3405;50.576;12.364;2023-04-06T13:57:43;0.90;;;0.90;;
6735;SDS011;3405;50.576;12.364;2023-04-06T14:00:10;2.58;;;1.40;;
6735;SDS011;3405;50.576;12.364;2023-04-06T14:02:37;1.67;;;1.25;;
6735;SDS011;3405;50.576;12.364;2023-04-06T14:05:03;1.83;;;1.20;;
6735;SDS011;3405;50.576;12.364;2023-04-06T14:07:29;1.55;;;1.35;;
6735;SDS011;3405;50.576;12.364;2023-04-06T14:09:55;2.38;;;1.40;;
6735;SDS011;3405;50.576;12.364;2023-04-06T14:12:21;3.42;;;1.40;;
6735;SDS011;3405;50.576;12.364;2023-04-06T14:14:47;3.20;;;1.20;;
6735;SDS011;3405;50.576;12.364;2023-04-06T14:17:13;2.47;;;1.58;;
6735;SDS011;3405;50.576;12.364;2023-04-06T14:19:39;2.22;;;1.60;;
6735;SDS011;3405;50.576;12.364;2023-04-06T14:22:05;1.58;;;0.90;;
6735;SDS011;3405;50.576;12.364;2023-04-06T14:24:31;2.22;;;1.20;;
6735;SDS011;3405;50.576;12.364;2023-04-06T14:26:59;1.83;;;1.30;;
6735;SDS011;3405;50.576;12.364;2023-04-06T14:29:26;2.78;;;1.48;;
6735;SDS011;3405;50.576;12.364;2023-04-06T14:31:51;2.22;;;1.20;;
6735;SDS011;3405;50.576;12.364;2023-04-06T14:34:17;1.33;;;1.13;;
6735;SDS011;3405;50.576;12.364;2023-04-06T14:36:43;1.92;;;1.27;;
6735;SDS011;3405;50.576;12.364;2023-04-06T14:39:09;1.13;;;1.00;;
6735;SDS011;3405;50.576;12.364;2023-04-06T14:41:35;3.55;;;1.20;;
6735;SDS011;3405;50.576;12.364;2023-04-06T14:44:01;1.73;;;1.17;;
6735;SDS011;3405;50.576;12.364;2023-04-06T14:46:27;2.42;;;1.30;;
6735;SDS011;3405;50.576;12.364;2023-04-06T14:48:54;1.73;;;1.23;;
6735;SDS011;3405;50.576;12.364;2023-04-06T14:51:21;1.02;;;1.00;;
6735;SDS011;3405;50.576;12.364;2023-04-06T14:53:47;2.08;;;1.13;;
6735;SDS011;3405;50.576;12.364;2023-04-06T14:56:12;1.23;;;1.13;;
6735;SDS011;3405;50.576;12.364;2023-04-06T14:58:38;1.58;;;1.23;;